createdAt,value
2018-07-10T05:04:09.533Z,95160.37
2018-07-10T05:09:12.867Z,95162.94
2018-07-10T05:14:16.190Z,95156.59
2018-07-10T05:25:13.398Z,95169.86
2018-07-10T05:30:21.055Z,95161.70
2018-07-10T05:35:24.387Z,95162.52
2018-07-10T05:40:33.566Z,95153.16
2018-07-10T05:45:36.903Z,95150.29
2018-07-10T05:50:40.994Z,95148.50
2018-07-10T05:55:44.319Z,95170.02
2018-07-10T06:01:05.870Z,95174.72
2018-07-10T06:06:09.202Z,95193.75
2018-07-10T06:11:13.308Z,95180.06
2018-07-10T06:16:16.703Z,95178.20
2018-07-10T06:21:19.995Z,95178.25
2018-07-10T06:26:23.322Z,95176.34
2018-07-10T06:31:26.660Z,95160.80
2018-07-10T06:36:30.015Z,95165.66
2018-07-10T06:41:33.363Z,95165.50
2018-07-10T06:46:36.695Z,95169.64
2018-07-10T06:51:40.019Z,95171.48
2018-07-10T06:56:44.126Z,95172.92
2018-07-10T07:01:47.455Z,95178.98
2018-07-10T07:06:50.782Z,95180.94
2018-07-10T07:11:54.885Z,95169.47
2018-07-10T07:16:58.230Z,95167.45
2018-07-10T07:22:02.331Z,95168.78
2018-07-10T07:27:05.661Z,95173.12
2018-07-10T07:32:09.754Z,95174.00
2018-07-10T07:37:13.083Z,95165.23
2018-07-10T07:42:16.416Z,95168.78
2018-07-10T07:47:20.510Z,95177.03
2018-07-10T07:52:23.859Z,95177.08
2018-07-10T07:57:27.196Z,95174.91
2018-07-10T08:02:30.532Z,95174.31
2018-07-10T08:07:33.867Z,95178.88
2018-07-10T08:12:37.208Z,95182.30
2018-07-10T08:17:40.538Z,95175.35
2018-07-10T08:22:44.631Z,95177.27
2018-07-10T08:27:47.980Z,95178.05
2018-07-10T08:32:52.079Z,95177.74
2018-07-10T08:37:55.402Z,95168.50
2018-07-10T08:42:58.762Z,95172.17
2018-07-10T08:48:02.107Z,95165.09
2018-07-10T08:53:05.500Z,95161.97
2018-07-10T08:58:08.828Z,95159.61
2018-07-10T09:03:12.166Z,95163.00
2018-07-10T09:08:15.491Z,95170.50
2018-07-10T09:13:19.587Z,95167.13
2018-07-10T09:18:22.914Z,95169.55
2018-07-10T09:23:26.255Z,95162.25
2018-07-10T09:28:30.386Z,95158.75
2018-07-10T09:33:34.614Z,95147.63
2018-07-10T09:38:38.606Z,95148.95
2018-07-10T09:43:41.942Z,95151.63
2018-07-10T09:48:45.283Z,95159.80
2018-07-10T09:53:48.620Z,95159.26
2018-07-10T09:58:51.962Z,95151.95
2018-07-10T10:03:55.297Z,95166.17
2018-07-10T10:08:58.634Z,95148.70
2018-07-10T10:14:01.976Z,95153.39
2018-07-10T10:19:05.312Z,95151.23
2018-07-10T10:24:09.421Z,95152.66
2018-07-10T10:29:12.762Z,95148.77
2018-07-10T10:34:16.103Z,95155.90
2018-07-10T10:39:34.866Z,95140.66
2018-07-10T10:44:38.955Z,95136.41
2018-07-10T10:50:10.040Z,95129.23
2018-07-10T10:55:13.381Z,95128.97
2018-07-10T11:00:28.574Z,95127.16
2018-07-10T11:05:32.687Z,95122.25
2018-07-10T11:11:00.799Z,95109.56
2018-07-10T11:16:04.130Z,95101.86
2018-07-10T11:21:07.481Z,95097.28
2018-07-10T11:26:10.838Z,95095.24
2018-07-10T11:31:14.932Z,95103.09
2018-07-10T11:36:18.259Z,95091.02
2018-07-10T11:41:21.602Z,95101.50
2018-07-10T11:46:24.984Z,95086.16
2018-07-10T11:51:28.424Z,95093.63
2018-07-10T11:56:31.754Z,95083.72
2018-07-10T12:01:35.147Z,95079.78
2018-07-10T12:06:38.519Z,95088.05
2018-07-10T12:11:41.912Z,95080.59
2018-07-10T12:16:45.300Z,95076.40
2018-07-10T12:21:48.691Z,95071.91
2018-07-10T12:26:52.877Z,95055.27
2018-07-10T12:31:56.267Z,95062.10
2018-07-10T12:36:59.690Z,95049.17
2018-07-10T12:42:03.026Z,95041.86
2018-07-10T12:47:06.347Z,95040.41
2018-07-10T12:52:09.680Z,95049.09
2018-07-10T12:57:13.002Z,95041.79
2018-07-10T13:02:17.107Z,95030.52
2018-07-10T13:07:20.439Z,95037.64
2018-07-10T13:12:23.762Z,95030.82
2018-07-10T13:17:27.870Z,95021.06
2018-07-10T13:22:31.198Z,95018.39
2018-07-10T13:27:34.527Z,95017.42
2018-07-10T13:32:38.617Z,95012.19
2018-07-10T13:37:41.951Z,95011.47
2018-07-10T13:42:45.283Z,95007.59
2018-07-10T13:47:49.398Z,95006.36
2018-07-10T13:52:52.723Z,94999.89
2018-07-10T13:57:56.827Z,94984.41
2018-07-10T14:03:00.154Z,94978.06
2018-07-10T14:08:03.486Z,94975.81
2018-07-10T14:13:07.583Z,94976.25
2018-07-10T14:18:10.934Z,94965.19
2018-07-10T14:23:15.303Z,94974.17
2018-07-10T14:28:18.668Z,94966.92
2018-07-10T14:33:22.786Z,94980.92
2018-07-10T14:38:26.475Z,95055.68
2018-07-10T14:43:29.825Z,95108.57
2018-07-10T14:48:33.397Z,95115.25
2018-07-10T14:53:36.746Z,95081.53
2018-07-10T14:58:40.251Z,95073.13
2018-07-10T15:03:43.643Z,95083.84
2018-07-10T15:08:46.994Z,95095.56
2018-07-10T15:13:50.335Z,95096.12
2018-07-10T15:18:53.672Z,95114.03
2018-07-10T15:23:56.996Z,95105.72
2018-07-10T15:29:00.375Z,95108.53
2018-07-10T15:34:03.716Z,95104.41
2018-07-10T15:39:07.042Z,95075.09
2018-07-10T15:44:10.377Z,95075.31
2018-07-10T15:49:13.707Z,95094.17
2018-07-10T15:54:17.038Z,95099.84
2018-07-10T15:59:20.362Z,95108.74
2018-07-10T16:04:23.687Z,95112.27
2018-07-10T16:09:28.970Z,95116.00
2018-07-10T16:14:32.299Z,95110.23
2018-07-10T16:19:35.645Z,95115.05
2018-07-10T16:24:38.985Z,95116.27
2018-07-10T16:29:53.150Z,95119.04
2018-07-10T16:34:56.470Z,95120.12
2018-07-10T16:39:59.840Z,95119.67
2018-07-10T16:45:03.947Z,95132.91
2018-07-10T16:50:07.287Z,95138.14
2018-07-10T16:55:11.382Z,95138.53
2018-07-10T17:00:29.054Z,95137.34
2018-07-10T17:05:33.158Z,95137.97
2018-07-10T17:10:38.419Z,95136.14
2018-07-10T17:15:41.762Z,95147.21
2018-07-10T17:20:49.859Z,95156.27
2018-07-10T17:25:53.203Z,95145.56
2018-07-10T17:30:57.300Z,95150.88
2018-07-10T17:36:00.647Z,95145.30
2018-07-10T17:41:03.983Z,95149.60
2018-07-10T17:46:07.330Z,95161.37
2018-07-10T17:51:10.675Z,95160.16
2018-07-10T17:56:14.040Z,95160.91
2018-07-10T18:01:17.482Z,95154.91
2018-07-10T18:06:21.642Z,95158.06
2018-07-10T18:11:25.784Z,95152.25
2018-07-10T18:16:29.156Z,95156.53
2018-07-10T18:21:32.462Z,95148.91
2018-07-10T18:26:35.792Z,95161.97
2018-07-10T18:31:39.114Z,95155.09
2018-07-10T18:36:43.199Z,95155.42
2018-07-10T18:41:46.528Z,95149.66
2018-07-10T18:46:49.856Z,95163.84
2018-07-10T18:51:53.195Z,95160.77
2018-07-10T18:56:57.354Z,95167.52
2018-07-10T19:02:01.019Z,95175.11
2018-07-10T19:07:05.489Z,95186.20
2018-07-10T19:12:09.136Z,95197.22
2018-07-10T19:17:12.585Z,95183.06
2018-07-10T19:22:16.021Z,95183.44
2018-07-10T19:27:19.364Z,95195.46
2018-07-10T19:32:22.699Z,95202.42
2018-07-10T19:37:26.036Z,95198.75
2018-07-10T19:42:29.376Z,95208.99
2018-07-10T19:47:33.477Z,95204.82
2018-07-10T19:52:36.865Z,95209.67
2018-07-10T19:57:40.934Z,95193.50
2018-07-10T20:02:45.043Z,95220.63
2018-07-10T20:07:48.378Z,95216.77
2018-07-10T20:12:51.758Z,95207.78
2018-07-10T20:17:55.051Z,95210.64
2018-07-10T20:22:58.383Z,95211.56
2018-07-10T20:28:01.727Z,95203.09
2018-07-10T20:33:05.115Z,95205.09
2018-07-10T20:38:09.166Z,95204.58
2018-07-10T20:43:12.495Z,95207.32
2018-07-10T20:48:16.587Z,95207.70
2018-07-10T20:53:19.911Z,95204.31
2018-07-10T20:58:23.248Z,95189.80
2018-07-10T21:03:27.354Z,95197.48
2018-07-10T21:08:30.690Z,95203.44
2018-07-10T21:13:34.023Z,95191.52
2018-07-10T21:18:37.358Z,95187.81
2018-07-10T21:23:40.686Z,95177.23
2018-07-10T21:28:44.024Z,95178.95
2018-07-10T21:33:47.351Z,95182.95
2018-07-10T21:38:50.695Z,95189.22
2018-07-10T21:43:54.035Z,95187.71
2018-07-10T21:48:57.379Z,95183.23
2018-07-10T21:54:00.714Z,95185.12
2018-07-10T21:59:04.815Z,95189.23
2018-07-10T22:04:08.160Z,95182.42
2018-07-10T22:09:12.291Z,95172.96
2018-07-10T22:14:16.575Z,95178.73
2018-07-10T22:19:19.933Z,95172.70
2018-07-10T22:24:24.054Z,95166.95
2018-07-10T22:29:27.542Z,95161.86
